Latest Weather Observations for Meekatharra

IDW60801

Issued at 10:32 pm WST Monday 26 January 2015 (issued every 30 minutes, with the page automatically refreshed every 10 minutes)

About weather observations | Map of weather stations | Latest weather observations for WA | Other Formats
Station Details ID: 007045 Name: MEEKATHARRA AIRPORT Lat: -26.61 Lon: 118.54 Height: 517.0 m
Data from the previous 72 hours. | See also: Recent months at Meekatharra
Date/Time
WST
Temp
°C
App
Temp
°C
Dew
Point
Rel
Hum
%
Delta-T
°C
Wind Press
QNH
hPa
Press
MSL
hPa
Rain
since 9 am
mm
Dir
 
Spd
km/h
Gust
km/h
Spd
kts
Gust
kts
26/10:30pm 22.2 19.6 17.8 76 2.8 ESE 28 35 15 19 1010.3 - 1.0
26/10:00pm 22.0 18.9 18.4 80 2.3 SE 32 43 17 23 1010.6 - 1.0
26/09:47pm 21.9 19.4 18.8 82 2.0 SE 30 48 16 26 1010.6 - 1.0
26/09:30pm 21.8 19.3 18.9 83 1.9 SE 30 44 16 24 1010.6 - 1.0
26/09:00pm 22.2 19.0 18.1 77 2.6 SSE 32 46 17 25 1009.8 1005.5 1.0
26/08:30pm 21.9 19.0 19.3 85 1.7 SSE 33 50 18 27 1009.3 - 1.0
26/08:12pm 22.6 20.2 19.2 81 2.2 S 30 48 16 26 1010.0 - 1.0
26/08:00pm 22.8 20.9 19.4 81 2.2 S 28 39 15 21 1010.2 - 1.0
26/07:53pm 22.4 20.5 20.1 87 1.5 S 30 43 16 23 1010.2 - 1.0
26/07:36pm 22.3 19.8 20.2 88 1.4 S 33 46 18 25 1011.2 - 0.4
26/07:30pm 22.8 20.4 19.9 84 1.9 S 32 46 17 25 1011.0 - 0.0
26/07:19pm 23.9 20.9 19.0 74 3.2 S 33 46 18 25 1010.6 - 0.0
26/07:10pm 28.9 23.1 12.8 37 9.7 W 35 46 19 25 1009.2 - 0.0
26/07:00pm 29.6 23.1 11.6 33 10.7 NW 37 61 20 33 1007.5 - 0.0
26/06:44pm 26.7 20.2 15.7 51 6.9 NW 44 69 24 37 1007.1 - 0.0
26/06:30pm 26.3 18.2 15.4 51 6.8 NW 52 80 28 43 1005.9 - 0.0
26/06:25pm 27.0 18.6 14.7 47 7.6 NW 52 80 28 43 1005.5 - 0.0
26/06:24pm 27.0 19.4 14.7 47 7.6 WNW 48 61 26 33 1005.5 - 0.0
26/06:09pm 26.5 16.0 16.7 55 6.2 NW 67 96 36 52 1006.5 - 0.0
26/06:04pm 30.5 21.7 16.1 41 9.2 NW 57 78 31 42 1006.4 - 0.0
26/06:03pm 35.5 30.7 12.9 25 14.0 NNW 30 76 16 41 1006.2 - 0.0
26/06:00pm 37.1 33.1 11.8 22 15.5 N 24 41 13 22 1005.2 1000.8 0.0
26/05:30pm 37.7 35.1 11.9 21 15.8 N 17 28 9 15 1003.8 - 0.0
26/05:00pm 37.9 34.4 12.2 21 15.8 NE 22 37 12 20 1004.0 - 0.0
26/04:30pm 37.4 34.0 12.6 22 15.4 N 22 33 12 18 1004.4 - 0.0
26/04:00pm 37.2 35.1 12.3 22 15.3 NNE 15 22 8 12 1005.1 - 0.0
26/03:30pm 36.9 34.0 13.0 24 14.9 NNE 20 35 11 19 1006.0 - 0.0
26/03:00pm 36.1 35.5 14.5 27 13.7 NE 11 17 6 9 1006.6 1002.2 0.0
26/02:30pm 37.6 35.5 13.6 24 15.1 NE 17 46 9 25 1006.8 - 0.0
26/02:00pm 36.5 33.3 14.2 26 14.1 N 24 35 13 19 1007.2 - 0.0
26/01:30pm 36.1 33.9 14.5 27 13.7 NE 19 33 10 18 1007.6 - 0.0
26/01:00pm 36.2 33.6 14.9 28 13.6 ENE 22 32 12 17 1008.3 - 0.0
26/12:30pm 34.9 33.0 15.3 31 12.5 NE 19 30 10 16 1008.5 - 0.0
26/12:00pm 33.7 31.6 15.1 32 11.8 ENE 20 28 11 15 1008.9 1004.5 0.0
26/11:30am 33.8 30.2 15.2 32 11.8 N 28 37 15 20 1009.4 - 0.0
26/11:00am 33.2 31.2 15.6 34 11.2 NE 20 32 11 17 1009.8 - 0.0
26/10:30am 32.1 30.3 16.0 38 10.3 NE 20 35 11 19 1010.3 - 0.0
26/10:00am 31.0 28.4 15.9 40 9.6 NE 24 35 13 19 1010.5 - 0.0
26/09:30am 29.9 27.6 16.6 44 8.5 NE 24 32 13 17 1010.6 - 0.0
26/08:30am 28.1 25.9 17.0 51 7.1 ENE 24 32 13 17 1010.8 - 1.4
26/08:00am 26.2 24.2 17.3 58 5.7 ENE 24 33 13 18 1010.8 - 1.4
26/07:30am 25.1 22.7 17.4 62 4.9 ENE 26 32 14 17 1010.9 - 1.4
26/07:00am 24.3 21.8 17.2 64 4.5 E 26 35 14 19 1010.9 - 1.4
26/06:30am 23.8 21.7 17.2 66 4.2 ENE 24 33 13 18 1010.7 - 1.4
26/06:00am 23.5 21.4 17.2 67 4.0 ENE 24 33 13 18 1010.3 1005.9 1.4
26/05:30am 23.5 22.2 17.2 67 4.0 ENE 20 28 11 15 1010.0 - 1.4
26/05:00am 23.7 22.6 17.2 67 4.1 E 19 28 10 15 1009.4 - 1.4
26/04:30am 24.1 21.9 16.8 63 4.6 E 24 35 13 19 1008.9 - 1.4
26/04:00am 24.2 21.9 16.7 63 4.7 E 24 33 13 18 1008.8 - 1.4
26/03:30am 24.5 22.4 17.1 63 4.7 E 24 35 13 19 1008.8 - 1.4
26/03:00am 25.0 22.4 16.9 60 5.1 E 26 33 14 18 1008.9 1004.5 1.4
26/02:30am 25.8 23.3 15.1 51 6.6 E 22 33 12 18 1008.8 - 1.4
26/02:00am 26.3 23.1 11.4 39 8.7 E 19 26 10 14 1008.8 - 1.4
26/01:30am 26.5 22.8 9.3 33 9.7 ESE 19 26 10 14 1009.3 - 1.4
26/01:00am 27.1 23.0 8.7 31 10.3 E 20 28 11 15 1009.3 - 1.4
26/12:30am 27.4 22.1 8.6 30 10.5 E 26 35 14 19 1009.5 - 1.4
26/12:00am 27.9 22.3 8.7 30 10.8 ESE 28 39 15 21 1009.5 1005.2 1.4
 
Date/Time
WST
Temp
°C
App
Temp
°C
Dew
Point
Rel
Hum
%
Delta-T
°C
Wind Press
QNH
hPa
Press
MSL
hPa
Rain
since 9 am
mm
Dir
 
Spd
km/h
Gust
km/h
Spd
kts
Gust
kts
25/11:30pm 28.7 23.3 9.4 30 11.0 ESE 28 35 15 19 1009.7 - 1.4
25/11:00pm 29.2 24.5 9.4 29 11.3 ESE 24 33 13 18 1010.0 - 1.4
25/10:30pm 29.8 24.9 9.9 29 11.5 E 26 35 14 19 1009.6 - 1.4
25/10:00pm 30.0 26.3 12.6 34 10.5 E 24 32 13 17 1009.5 - 1.4
25/09:30pm 30.3 27.1 13.2 35 10.4 E 22 32 12 17 1009.5 - 1.4
25/09:00pm 30.2 27.2 13.8 36 10.1 E 22 32 12 17 1008.6 1004.2 1.4
25/08:30pm 30.4 27.8 13.8 36 10.2 E 20 26 11 14 1008.3 - 1.4
25/08:00pm 30.7 27.8 14.0 36 10.3 E 22 30 12 16 1007.9 - 1.4
25/07:30pm 31.5 27.8 12.8 32 11.4 ESE 24 35 13 19 1007.4 - 1.4
25/07:00pm 31.6 29.2 14.3 35 10.8 E 20 26 11 14 1007.0 - 1.4
25/06:30pm 32.0 28.0 13.1 31 11.6 ESE 26 35 14 19 1006.2 - 1.4
25/06:00pm 32.8 29.1 13.8 31 11.8 E 26 35 14 19 1005.6 1001.3 1.4
25/05:30pm 32.2 28.2 15.3 36 10.7 E 30 37 16 20 1005.6 - 1.4
25/05:11pm 32.6 28.6 16.7 38 10.3 E 33 46 18 25 1005.5 - 1.4
25/05:00pm 30.7 27.9 19.0 49 7.8 E 32 44 17 24 1005.5 - 1.4
25/04:55pm 30.7 28.1 19.5 51 7.5 E 32 41 17 22 1005.6 - 1.0
25/04:30pm 35.6 30.7 13.7 27 13.7 E 32 41 17 22 1005.4 - 0.0
25/04:00pm 38.2 32.8 12.9 22 15.8 E 33 44 18 24 1005.2 - 0.0
25/03:52pm 39.2 34.3 11.3 19 17.1 SE 28 41 15 22 1005.5 - 0.0
25/03:30pm 40.7 36.8 8.5 14 19.0 SW 19 20 10 11 1005.7 - 0.0
25/03:00pm 39.0 37.6 9.6 17 17.6 SSE 7 11 4 6 1006.2 1001.8 0.0
25/02:30pm 37.6 35.5 11.1 20 16.1 S 13 19 7 10 1006.7 - 0.0
25/02:00pm 40.3 38.5 9.5 15 18.4 N 9 22 5 12 1006.6 - 0.0
25/01:30pm 40.3 38.6 9.8 16 18.3 NW 9 22 5 12 1007.1 - 0.0
25/01:00pm 39.8 36.8 10.5 17 17.8 WNW 17 32 9 17 1007.7 - 0.0
25/12:30pm 40.3 36.5 9.7 16 18.4 NNW 20 41 11 22 1008.1 - 0.0
25/12:00pm 39.9 36.3 10.7 17 17.8 NNW 20 26 11 14 1008.6 1004.2 0.0
25/11:30am 38.8 34.6 11.1 19 16.9 N 24 30 13 16 1009.2 - 0.0
25/11:00am 37.4 34.6 11.3 20 15.9 N 17 24 9 13 1009.6 - 0.0
25/10:30am 35.5 33.0 12.4 24 14.2 N 17 24 9 13 1010.1 - 0.0
25/10:00am 35.1 33.0 12.4 25 13.9 NE 15 26 8 14 1010.3 - 0.0
25/09:30am 34.3 30.6 11.6 25 13.7 ENE 22 35 12 19 1010.6 - 0.0
25/09:00am 34.5 31.2 11.5 24 13.9 ENE 20 30 11 16 1010.7 1006.3 0.0
25/08:30am 32.8 28.6 9.6 24 13.5 E 22 30 12 16 1010.7 - 0.0
25/08:00am 32.6 28.1 10.1 25 13.2 E 24 33 13 18 1010.3 - 0.0
25/07:30am 31.5 27.3 9.8 26 12.6 E 22 32 12 17 1010.0 - 0.0
25/07:00am 30.2 25.9 7.9 24 12.5 E 20 30 11 16 1009.8 - 0.0
25/06:30am 29.3 26.4 9.6 29 11.3 ESE 15 22 8 12 1009.8 - 0.0
25/06:00am 28.2 26.0 12.2 37 9.5 E 15 19 8 10 1009.5 1005.2 0.0
25/05:30am 27.8 26.5 13.7 42 8.6 E 13 19 7 10 1009.1 - 0.0
25/05:00am 28.0 27.1 13.7 41 8.7 E 11 17 6 9 1008.9 - 0.0
25/04:30am 27.9 27.1 14.0 42 8.5 E 11 15 6 8 1008.8 - 0.0
25/04:00am 28.3 27.8 13.9 41 8.8 E 9 13 5 7 1008.6 - 0.0
25/03:30am 28.7 28.1 13.6 39 9.2 E 9 13 5 7 1008.2 - 0.0
25/03:00am 29.1 28.5 13.5 38 9.5 E 9 13 5 7 1008.3 1003.9 0.0
25/02:30am 29.3 28.9 14.0 39 9.4 E 9 11 5 6 1007.9 - 0.0
25/02:00am 29.7 29.5 13.5 37 9.9 E 7 9 4 5 1007.9 - 0.0
25/01:30am 30.2 29.5 13.3 35 10.3 E 9 13 5 7 1008.1 - 0.0
25/01:00am 30.5 29.4 13.1 34 10.6 E 11 15 6 8 1008.2 - 0.0
25/12:30am 31.3 29.6 12.5 31 11.4 E 13 17 7 9 1008.5 - 0.0
25/12:00am 31.6 29.8 12.2 30 11.7 E 13 17 7 9 1008.3 1003.9 0.0
 
Date/Time
WST
Temp
°C
App
Temp
°C
Dew
Point
Rel
Hum
%
Delta-T
°C
Wind Press
QNH
hPa
Press
MSL
hPa
Rain
since 9 am
mm
Dir
 
Spd
km/h
Gust
km/h
Spd
kts
Gust
kts
24/11:30pm 32.0 30.7 12.6 30 11.8 E 11 15 6 8 1008.4 - 0.0
24/11:00pm 32.5 31.3 12.9 30 12.0 E 11 17 6 9 1008.7 - 0.0
24/10:30pm 33.0 31.0 12.7 29 12.4 E 15 20 8 11 1008.9 - 0.0
24/10:00pm 33.4 31.6 13.3 29 12.4 ENE 15 22 8 12 1009.1 - 0.0
24/09:30pm 33.9 31.0 12.9 28 12.9 ENE 20 26 11 14 1009.0 - 0.0
24/09:00pm 36.3 32.9 10.7 21 15.4 ESE 19 30 10 16 1008.7 1004.3 0.0
24/08:30pm 37.8 31.8 5.5 13 18.1 S 26 39 14 21 1008.1 - 0.0
24/08:00pm 38.5 32.2 5.7 13 18.5 S 28 37 15 20 1007.7 - 0.0
24/07:30pm 39.2 34.1 6.2 13 18.8 S 22 32 12 17 1007.2 - 0.0
24/07:00pm 39.8 34.3 5.9 12 19.2 SSW 24 33 13 18 1006.9 - 0.0
24/06:30pm 40.6 34.5 6.7 13 19.5 SSW 28 35 15 19 1006.5 - 0.0
24/06:00pm 41.3 35.9 6.5 12 20.1 SW 24 35 13 19 1006.2 1001.8 0.0
24/05:30pm 41.8 36.8 6.3 11 20.4 SW 22 39 12 21 1006.0 - 0.0
24/05:00pm 41.5 35.4 6.7 12 20.1 SW 28 43 15 23 1005.9 - 0.0
24/04:30pm 41.6 37.2 7.5 13 20.0 WSW 20 28 11 15 1005.9 - 0.0
24/04:00pm 42.1 38.0 8.0 13 20.1 W 19 28 10 15 1006.1 - 0.0
24/03:30pm 41.3 38.6 8.8 14 19.3 SW 13 22 7 12 1006.4 - 0.0
24/03:00pm 42.0 39.5 8.4 13 20.0 WSW 11 22 6 12 1006.7 1002.3 0.0
24/02:30pm 42.1 40.3 9.5 14 19.7 SSW 9 15 5 8 1007.0 - 0.0
24/02:00pm 42.3 38.4 8.7 13 20.1 W 19 30 10 16 1007.4 - 0.0
24/01:30pm 41.8 38.6 9.8 15 19.4 W 17 22 9 12 1008.0 - 0.0
24/01:00pm 42.2 38.5 9.4 14 19.8 NNW 19 24 10 13 1008.4 - 0.0
24/12:30pm 41.9 39.3 9.4 14 19.6 WNW 13 26 7 14 1008.8 - 0.0
24/12:00pm 41.0 38.7 10.5 16 18.6 N 13 26 7 14 1009.2 1004.9 0.0
24/11:30am 39.5 38.5 11.0 18 17.4 N 7 13 4 7 1009.7 - 0.0
24/11:00am 39.0 37.8 11.7 19 16.8 ENE 9 17 5 9 1010.0 - 0.0
24/10:30am 38.1 36.5 11.4 20 16.3 ENE 11 22 6 12 1010.4 - 0.0
24/10:00am 37.3 36.6 12.1 22 15.5 ENE 7 13 4 7 1010.6 - 0.0
24/09:30am 36.1 35.5 12.3 24 14.6 ENE 7 13 4 7 1010.7 - 0.0
24/09:00am 36.0 35.0 12.2 23 14.6 ENE 9 15 5 8 1010.8 1006.4 0.0
24/08:30am 34.7 32.9 12.0 25 13.8 NE 13 19 7 10 1010.8 - 0.0
24/08:00am 34.0 32.3 12.6 27 13.1 NE 13 20 7 11 1010.8 - 0.0
24/07:30am 32.9 31.2 12.5 29 12.4 NNE 13 17 7 9 1010.9 - 0.0
24/07:00am 31.8 30.1 12.3 30 11.8 N 13 17 7 9 1011.1 - 0.0
24/06:30am 30.8 29.5 12.4 32 11.1 NNW 11 17 6 9 1011.0 - 0.0
24/06:00am 29.4 29.1 12.8 36 10.0 NNW 6 15 3 8 1010.8 1006.4 0.0
24/05:30am 29.5 28.5 12.3 34 10.3 NNW 9 11 5 6 1010.5 - 0.0
24/05:00am 29.2 28.9 13.2 37 9.7 NNW 7 11 4 6 1009.8 - 0.0
24/04:30am 30.3 30.2 13.2 35 10.4 NNW 6 11 3 6 1009.5 - 0.0
24/04:00am 30.4 31.9 14.7 38 9.8 CALM 0 0 0 0 1009.5 - 0.0
24/03:30am 31.1 32.6 14.6 36 10.3 CALM 0 2 0 1 1009.7 - 0.0
24/03:00am 31.8 31.5 13.4 32 11.3 NNW 7 11 4 6 1009.7 1005.4 0.0
24/02:30am 32.4 30.4 12.7 30 12.0 NNW 15 20 8 11 1010.1 - 0.0
24/02:00am 33.1 30.1 12.1 27 12.7 NNW 19 24 10 13 1010.2 - 0.0
24/01:30am 33.7 31.6 11.1 25 13.5 N 13 17 7 9 1010.5 - 0.0
24/01:00am 33.5 32.4 12.1 27 13.0 NNW 9 17 5 9 1010.7 - 0.0
24/12:30am 33.7 32.3 12.1 27 13.1 N 11 19 6 10 1010.8 - 0.0
24/12:00am 34.1 31.4 11.8 25 13.5 N 17 26 9 14 1010.4 1006.0 0.0
 
Date/Time
WST
Temp
°C
App
Temp
°C
Dew
Point
Rel
Hum
%
Delta-T
°C
Wind Press
QNH
hPa
Press
MSL
hPa
Rain
since 9 am
mm
Dir
 
Spd
km/h
Gust
km/h
Spd
kts
Gust
kts
23/11:30pm 34.6 31.4 11.9 25 13.8 N 20 26 11 14 1010.4 - 0.0
23/11:00pm 35.9 32.5 10.7 21 15.1 N 19 30 10 16 1010.1 - 0.0

Other Formats:

Comma delimited format used in spreadsheet applications
http://www.bom.gov.au/fwo/IDW60801/IDW60801.94430.axf

JavaScript Object Notation format (JSON) in row-major order
http://www.bom.gov.au/fwo/IDW60801/IDW60801.94430.json